Time;durP1;ratioP1;P1;durP2;ratioP2;P2;SDS_P1;SDS_P2;PMS_P1;PMS_P2;Temp;Humidity;BMP_temperature;BMP_pressure;BME280_temperature;BME280_humidity;BME280_pressure;Samples;Min_cycle;Max_cycle;Signal;HPM_P1;HPM_P2
2021/09/01 00:00:06;;;;;;;1.10;0.63;;;14.60;99.90;;;;;;5052390;28;20227;-65
2021/09/01 00:02:32;;;;;;;0.43;0.35;;;14.60;99.90;;;;;;5053879;28;20180;-64
2021/09/01 00:04:57;;;;;;;2.67;1.77;;;14.60;99.90;;;;;;5053579;28;20187;-64
2021/09/01 00:07:23;;;;;;;0.70;0.50;;;14.70;99.90;;;;;;5053498;28;20181;-65
2021/09/01 00:09:48;;;;;;;0.73;0.73;;;14.60;99.90;;;;;;5053437;28;20226;-67
2021/09/01 00:12:14;;;;;;;2.80;1.10;;;14.60;99.90;;;;;;5052566;28;20173;-66
2021/09/01 00:14:40;;;;;;;1.00;0.93;;;14.60;99.90;;;;;;5053331;28;20200;-65
2021/09/01 00:17:06;;;;;;;0.83;0.83;;;14.60;99.90;;;;;;5052355;28;20271;-64
2021/09/01 00:19:31;;;;;;;2.57;2.37;;;14.60;99.90;;;;;;5053163;28;20216;-66
2021/09/01 00:21:57;;;;;;;0.50;0.40;;;14.50;99.90;;;;;;5053394;28;20250;-67
2021/09/01 00:24:22;;;;;;;2.20;1.43;;;14.60;99.90;;;;;;5053267;28;20303;-65
2021/09/01 00:26:48;;;;;;;2.50;2.23;;;14.70;99.90;;;;;;5052199;28;20610;-65
2021/09/01 00:29:13;;;;;;;2.43;1.73;;;14.60;99.90;;;;;;5053035;28;20187;-65
2021/09/01 00:31:39;;;;;;;0.50;0.50;;;14.60;99.90;;;;;;5053081;28;20541;-64
2021/09/01 00:34:05;;;;;;;3.47;1.57;;;14.50;99.90;;;;;;5051961;28;20291;-64
2021/09/01 00:36:31;;;;;;;0.50;0.40;;;14.50;99.90;;;;;;5054473;28;20581;-67
2021/09/01 00:38:58;;;;;;;0.40;0.40;;;14.60;99.90;;;;;;5056678;28;20930;-68
2021/09/01 00:41:25;;;;;;;6.72;3.80;;;14.50;99.90;;;;;;5056921;28;20518;-67
2021/09/01 00:43:59;;;;;;;0.60;0.60;;;14.40;99.90;;;;;;5056878;28;20262;-67
2021/09/01 00:46:25;;;;;;;0.50;0.30;;;14.50;99.90;;;;;;5055872;28;20663;-67
2021/09/01 00:48:52;;;;;;;0.70;0.70;;;14.50;99.90;;;;;;5056617;28;20181;-65
2021/09/01 00:51:17;;;;;;;4.43;1.65;;;14.50;99.90;;;;;;5056690;28;20439;-64
2021/09/01 00:53:45;;;;;;;0.50;0.50;;;14.40;99.90;;;;;;5056571;28;20244;-64
2021/09/01 00:56:16;;;;;;;2.97;2.05;;;14.40;99.90;;;;;;5056559;28;21080;-64
2021/09/01 00:58:42;;;;;;;2.05;1.95;;;14.50;99.90;;;;;;5056676;28;20199;-64
2021/09/01 01:01:15;;;;;;;2.47;1.60;;;14.50;99.90;;;;;;5056722;28;20176;-67
2021/09/01 01:03:42;;;;;;;0.32;0.22;;;14.50;99.90;;;;;;5056915;28;20404;-67
2021/09/01 01:06:08;;;;;;;0.30;0.20;;;14.40;99.90;;;;;;5056556;28;20207;-68
2021/09/01 01:08:33;;;;;;;1.73;1.63;;;14.50;99.90;;;;;;5055216;28;20192;-68
2021/09/01 01:11:00;;;;;;;0.47;0.30;;;14.40;99.90;;;;;;5056706;28;20607;-67
2021/09/01 01:13:27;;;;;;;8.77;2.10;;;14.40;99.90;;;;;;5055215;28;20219;-67
2021/09/01 01:15:53;;;;;;;0.38;0.20;;;14.30;99.90;;;;;;5056365;28;20192;-67
2021/09/01 01:18:18;;;;;;;0.70;0.55;;;14.30;99.90;;;;;;5056166;28;20177;-66
2021/09/01 01:20:49;;;;;;;1.03;0.93;;;14.30;99.90;;;;;;5056192;28;20610;-65
2021/09/01 01:23:17;;;;;;;1.52;1.42;;;14.30;99.90;;;;;;5056088;28;20183;-65
2021/09/01 01:25:43;;;;;;;1.25;1.17;;;14.30;99.90;;;;;;5055040;28;20267;-65
2021/09/01 01:28:10;;;;;;;0.30;0.20;;;14.40;99.90;;;;;;5056068;28;20215;-65
2021/09/01 01:30:36;;;;;;;0.77;0.77;;;14.40;99.90;;;;;;5055915;28;20819;-65
2021/09/01 01:33:02;;;;;;;2.15;2.05;;;14.40;99.90;;;;;;5055832;28;20212;-65
2021/09/01 01:35:36;;;;;;;2.70;2.50;;;14.40;99.90;;;;;;5055856;28;20642;-65
2021/09/01 01:38:04;;;;;;;0.95;0.95;;;14.40;99.90;;;;;;5055734;28;20180;-65
2021/09/01 01:40:30;;;;;;;2.70;2.60;;;14.40;99.90;;;;;;5055521;28;20233;-65
2021/09/01 01:42:56;;;;;;;0.50;0.50;;;14.40;99.90;;;;;;5055651;28;20199;-65
2021/09/01 01:45:31;;;;;;;2.57;1.70;;;14.40;99.90;;;;;;5055638;28;20605;-65
2021/09/01 01:47:57;;;;;;;7.20;2.63;;;14.40;99.90;;;;;;5054309;28;20427;-65
2021/09/01 01:50:23;;;;;;;8.90;3.00;;;14.40;99.90;;;;;;5055372;28;20637;-65
2021/09/01 01:52:52;;;;;;;0.87;0.63;;;14.40;99.90;;;;;;5055524;28;20281;-65
2021/09/01 01:55:18;;;;;;;1.70;1.38;;;14.40;99.90;;;;;;5054552;28;20184;-65
2021/09/01 01:57:43;;;;;;;9.13;3.67;;;14.40;99.90;;;;;;5054427;28;20188;-65
2021/09/01 02:00:09;;;;;;;1.30;1.30;;;14.30;99.90;;;;;;5055302;28;20442;-65
2021/09/01 02:02:35;;;;;;;0.30;0.30;;;14.30;99.90;;;;;;5055271;28;20191;-65
2021/09/01 02:05:04;;;;;;;0.70;0.47;;;14.30;99.90;;;;;;5055375;28;20173;-65
2021/09/01 02:07:37;;;;;;;1.48;1.38;;;14.30;99.90;;;;;;5055289;28;20195;-65
2021/09/01 02:10:05;;;;;;;0.30;0.20;;;14.30;99.90;;;;;;5054155;28;20618;-64
2021/09/01 02:12:31;;;;;;;1.20;1.20;;;14.30;99.90;;;;;;5054108;28;20203;-68
2021/09/01 02:14:58;;;;;;;2.70;1.90;;;14.40;99.90;;;;;;5054595;28;20187;-67
2021/09/01 02:17:24;;;;;;;0.45;0.40;;;14.30;99.90;;;;;;5055061;28;20179;-67
2021/09/01 02:19:50;;;;;;;0.30;0.20;;;14.40;99.90;;;;;;5054831;28;20568;-67
2021/09/01 02:22:16;;;;;;;0.30;0.20;;;14.40;99.90;;;;;;5055000;28;20423;-67
2021/09/01 02:24:41;;;;;;;1.20;0.50;;;14.50;99.90;;;;;;5054876;28;20223;-68
2021/09/01 02:27:07;;;;;;;1.23;0.70;;;14.60;99.90;;;;;;5054850;28;20177;-67
2021/09/01 02:29:33;;;;;;;0.30;0.20;;;14.60;99.90;;;;;;5055078;28;20177;-68
2021/09/01 02:31:58;;;;;;;0.37;0.27;;;14.60;99.90;;;;;;5054960;28;20206;-68
2021/09/01 02:34:24;;;;;;;0.30;0.20;;;14.60;99.90;;;;;;5054791;28;20550;-67
2021/09/01 02:36:50;;;;;;;0.63;0.60;;;14.50;99.90;;;;;;5054481;28;20636;-67
2021/09/01 02:39:16;;;;;;;0.30;0.20;;;14.60;99.90;;;;;;5054540;28;20551;-67
2021/09/01 02:41:41;;;;;;;0.93;0.88;;;14.60;99.90;;;;;;5054628;28;20177;-67
2021/09/01 02:44:07;;;;;;;3.30;3.10;;;14.50;99.90;;;;;;5054644;28;20241;-67
2021/09/01 02:46:33;;;;;;;0.73;0.70;;;14.60;99.90;;;;;;5054501;28;20232;-68
2021/09/01 02:48:59;;;;;;;4.30;3.97;;;14.60;99.90;;;;;;5053433;28;20192;-68
2021/09/01 02:51:24;;;;;;;0.30;0.20;;;14.50;99.90;;;;;;5054218;28;20189;-67
2021/09/01 02:53:50;;;;;;;0.60;0.60;;;14.50;99.90;;;;;;5053221;28;20867;-67
2021/09/01 02:56:15;;;;;;;1.80;1.03;;;14.50;99.90;;;;;;5054283;28;20702;-67
2021/09/01 02:58:41;;;;;;;1.70;1.60;;;14.50;99.90;;;;;;5053438;28;20641;-67
2021/09/01 03:01:06;;;;;;;0.70;0.70;;;14.40;99.90;;;;;;5053382;28;20288;-67
2021/09/01 03:03:32;;;;;;;0.40;0.33;;;14.40;99.90;;;;;;5054289;28;20275;-67
2021/09/01 03:05:57;;;;;;;1.27;1.17;;;14.40;99.90;;;;;;5054052;28;20181;-67
2021/09/01 03:08:23;;;;;;;2.43;2.03;;;14.40;99.90;;;;;;5054049;28;20188;-67
2021/09/01 03:10:48;;;;;;;0.70;0.70;;;14.40;99.90;;;;;;5054133;28;20246;-67
2021/09/01 03:13:14;;;;;;;3.20;3.00;;;14.30;99.90;;;;;;5053929;28;20236;-67
2021/09/01 03:15:39;;;;;;;2.90;1.30;;;14.30;99.90;;;;;;5053994;28;20181;-67
2021/09/01 03:18:05;;;;;;;0.83;0.80;;;14.30;99.90;;;;;;5053892;28;20173;-67
2021/09/01 03:20:31;;;;;;;4.97;3.00;;;14.30;99.90;;;;;;5052822;28;20522;-67
2021/09/01 03:22:56;;;;;;;0.33;0.20;;;14.20;99.90;;;;;;5054106;28;20192;-67
2021/09/01 03:25:22;;;;;;;1.00;1.00;;;14.30;99.90;;;;;;5053879;28;20553;-67
2021/09/01 03:27:48;;;;;;;2.50;2.30;;;14.40;99.90;;;;;;5053747;28;20177;-67
2021/09/01 03:30:14;;;;;;;0.60;0.60;;;14.40;99.90;;;;;;5053712;28;20428;-67
2021/09/01 03:32:39;;;;;;;2.30;2.10;;;14.40;99.90;;;;;;5053661;28;20176;-67
2021/09/01 03:35:06;;;;;;;1.57;1.47;;;14.20;99.90;;;;;;5053723;28;20419;-67
2021/09/01 03:37:31;;;;;;;3.25;2.05;;;14.30;99.90;;;;;;5053704;28;20683;-68
2021/09/01 03:39:57;;;;;;;13.50;2.67;;;14.30;99.90;;;;;;5053544;28;20251;-67
2021/09/01 03:42:23;;;;;;;3.20;2.47;;;14.30;99.90;;;;;;5053589;28;20311;-67
2021/09/01 03:44:49;;;;;;;7.83;4.63;;;14.30;99.90;;;;;;5053578;28;20571;-67
2021/09/01 03:47:14;;;;;;;4.57;3.00;;;14.10;99.90;;;;;;5052474;28;20188;-67
2021/09/01 03:49:40;;;;;;;1.60;1.17;;;14.20;99.90;;;;;;5053249;28;20196;-67
2021/09/01 03:52:05;;;;;;;5.00;2.43;;;14.20;99.90;;;;;;5053610;28;20185;-68
2021/09/01 03:54:31;;;;;;;0.70;0.50;;;14.10;99.90;;;;;;5052423;28;20676;-67
2021/09/01 03:56:57;;;;;;;0.87;0.80;;;14.20;99.90;;;;;;5053359;28;20603;-67
2021/09/01 03:59:22;;;;;;;0.40;0.37;;;14.10;99.90;;;;;;5053437;28;20192;-67
2021/09/01 04:01:48;;;;;;;1.13;1.03;;;14.10;99.90;;;;;;5052269;28;20238;-67
2021/09/01 04:04:13;;;;;;;2.20;1.70;;;14.20;99.90;;;;;;5053234;28;20264;-67
2021/09/01 04:06:39;;;;;;;4.63;0.97;;;14.20;99.90;;;;;;5053187;28;20195;-67
2021/09/01 04:09:04;;;;;;;0.30;0.30;;;14.20;99.90;;;;;;5053196;28;20188;-67
2021/09/01 04:11:30;;;;;;;0.40;0.20;;;14.20;99.90;;;;;;5055774;28;20184;-67
2021/09/01 04:13:55;;;;;;;6.10;2.80;;;14.20;99.90;;;;;;5057365;28;20219;-67
2021/09/01 04:16:21;;;;;;;9.50;4.30;;;14.10;99.90;;;;;;5057227;28;20208;-67
2021/09/01 04:18:47;;;;;;;6.13;3.60;;;14.00;99.90;;;;;;5057137;28;20219;-67
2021/09/01 04:21:12;;;;;;;2.10;2.00;;;14.00;99.90;;;;;;5057030;28;20484;-67
2021/09/01 04:23:38;;;;;;;1.23;0.53;;;14.00;99.90;;;;;;5056298;28;20200;-67
2021/09/01 04:26:04;;;;;;;1.00;1.00;;;14.00;99.90;;;;;;5056372;28;20211;-67
2021/09/01 04:28:30;;;;;;;4.70;2.77;;;14.10;99.90;;;;;;5056796;28;20419;-67
2021/09/01 04:30:56;;;;;;;2.05;1.95;;;14.00;99.90;;;;;;5055997;28;20437;-67
2021/09/01 04:33:22;;;;;;;1.07;0.87;;;14.00;99.90;;;;;;5056898;28;20196;-67
2021/09/01 04:35:48;;;;;;;0.40;0.40;;;13.90;99.90;;;;;;5056877;28;20177;-67
2021/09/01 04:38:13;;;;;;;2.23;2.10;;;13.90;99.90;;;;;;5056521;28;20204;-68
2021/09/01 04:40:39;;;;;;;0.63;0.63;;;14.00;99.90;;;;;;5056906;28;20181;-67
2021/09/01 04:43:04;;;;;;;1.50;1.40;;;14.00;99.90;;;;;;5056777;28;20181;-67
2021/09/01 04:45:30;;;;;;;0.70;0.60;;;14.00;99.90;;;;;;5055797;28;20229;-67
2021/09/01 04:47:56;;;;;;;4.30;2.40;;;14.10;99.90;;;;;;5056436;28;20259;-67
2021/09/01 04:50:21;;;;;;;0.60;0.57;;;14.00;99.90;;;;;;5056379;28;20177;-68
2021/09/01 04:52:47;;;;;;;0.63;0.63;;;14.30;99.90;;;;;;5056508;28;20192;-67
2021/09/01 04:55:15;;;;;;;2.40;2.30;;;14.30;99.90;;;;;;5056578;28;20195;-67
2021/09/01 04:57:42;;;;;;;4.22;3.22;;;14.30;99.90;;;;;;5055494;28;20211;-68
2021/09/01 05:00:09;;;;;;;3.70;2.28;;;14.20;99.90;;;;;;5056296;28;20177;-67
2021/09/01 05:02:34;;;;;;;0.30;0.20;;;14.20;99.90;;;;;;5056219;28;20188;-67
2021/09/01 05:05:00;;;;;;;0.30;0.10;;;14.20;99.90;;;;;;5056560;28;20599;-68
2021/09/01 05:07:26;;;;;;;4.93;4.30;;;14.40;99.90;;;;;;5055035;28;20173;-67
2021/09/01 05:09:52;;;;;;;1.13;1.03;;;14.50;99.90;;;;;;5055035;28;20177;-67
2021/09/01 05:12:17;;;;;;;0.30;0.30;;;14.40;99.90;;;;;;5055137;28;20176;-67
2021/09/01 05:14:43;;;;;;;4.00;1.03;;;14.40;99.90;;;;;;5056207;28;20650;-66
2021/09/01 05:17:09;;;;;;;1.30;1.03;;;14.40;99.90;;;;;;5056145;28;20537;-66
2021/09/01 05:19:35;;;;;;;2.60;2.03;;;14.30;99.90;;;;;;5054801;28;20195;-66
2021/09/01 05:22:05;;;;;;;2.80;2.17;;;14.30;99.90;;;;;;5055846;28;20177;-66
2021/09/01 05:24:42;;;;;;;1.08;1.08;;;14.20;99.90;;;;;;5056051;28;20177;-66
2021/09/01 05:27:21;;;;;;;0.63;0.63;;;14.10;99.90;;;;;;5055921;28;20200;-66
2021/09/01 05:29:48;;;;;;;1.80;1.70;;;14.10;99.90;;;;;;5055788;28;20196;-66
2021/09/01 05:32:20;;;;;;;1.63;1.52;;;14.00;99.90;;;;;;5055842;28;20196;-66
2021/09/01 05:34:48;;;;;;;0.30;0.20;;;14.10;99.90;;;;;;5055879;28;20544;-66
2021/09/01 05:37:13;;;;;;;2.95;2.00;;;14.00;99.90;;;;;;5055832;28;20169;-66
2021/09/01 05:39:44;;;;;;;1.70;1.60;;;14.20;99.90;;;;;;5055609;28;20264;-66
2021/09/01 05:42:12;;;;;;;1.33;1.33;;;14.10;99.90;;;;;;5055922;28;20189;-67
2021/09/01 05:44:39;;;;;;;0.70;0.52;;;14.20;99.90;;;;;;5054215;28;20185;-66
2021/09/01 05:47:06;;;;;;;2.75;1.17;;;14.10;99.90;;;;;;5055328;28;20201;-67
2021/09/01 05:49:33;;;;;;;0.90;0.90;;;14.30;99.90;;;;;;5055125;28;20173;-67
2021/09/01 05:52:00;;;;;;;2.80;2.60;;;14.20;99.90;;;;;;5055301;28;20239;-66
2021/09/01 05:54:26;;;;;;;2.47;2.20;;;14.20;99.90;;;;;;5055624;28;20567;-67
2021/09/01 05:56:55;;;;;;;3.53;2.03;;;14.40;99.90;;;;;;5047878;28;20216;-72
2021/09/01 05:59:23;;;;;;;3.00;2.15;;;14.50;99.90;;;;;;5037722;28;20630;-67
2021/09/01 06:02:05;;;;;;;0.40;0.40;;;14.30;99.90;;;;;;5055150;28;20212;-71
2021/09/01 06:04:37;;;;;;;0.45;0.35;;;14.40;99.90;;;;;;5047442;28;20517;-68
2021/09/01 06:07:07;;;;;;;2.75;1.50;;;14.60;99.90;;;;;;5035373;28;20209;-68
2021/09/01 06:09:34;;;;;;;2.63;1.20;;;14.60;99.90;;;;;;5034620;28;20193;-68
2021/09/01 06:12:03;;;;;;;8.88;3.25;;;14.70;99.90;;;;;;5035061;28;20431;-68
2021/09/01 06:14:29;;;;;;;0.30;0.20;;;14.60;99.90;;;;;;5054497;28;20204;-67
2021/09/01 06:16:56;;;;;;;0.40;0.20;;;14.80;99.90;;;;;;5054846;28;20266;-67
2021/09/01 06:19:21;;;;;;;2.63;1.98;;;15.00;99.90;;;;;;5054733;28;20169;-68
2021/09/01 06:21:47;;;;;;;2.67;2.53;;;15.00;99.90;;;;;;5054948;28;20183;-68
2021/09/01 06:24:12;;;;;;;1.73;1.63;;;15.00;99.90;;;;;;5053880;28;20211;-68
2021/09/01 06:26:38;;;;;;;1.03;0.93;;;15.00;99.90;;;;;;5055170;28;20219;-68
2021/09/01 06:29:03;;;;;;;4.83;4.63;;;15.20;99.90;;;;;;5055223;28;20231;-67
2021/09/01 06:31:35;;;;;;;0.50;0.50;;;15.20;99.90;;;;;;5055032;28;20177;-68
2021/09/01 06:34:00;;;;;;;1.27;1.20;;;15.10;99.90;;;;;;5054024;28;20204;-69
2021/09/01 06:36:26;;;;;;;1.70;1.60;;;15.30;99.90;;;;;;5054078;28;20268;-69
2021/09/01 06:38:51;;;;;;;7.40;3.10;;;15.50;99.90;;;;;;5054649;28;20610;-68
2021/09/01 06:41:17;;;;;;;1.63;1.47;;;15.20;99.90;;;;;;5054273;28;20520;-68
2021/09/01 06:43:42;;;;;;;2.93;2.73;;;15.30;99.90;;;;;;5054120;28;20215;-68
2021/09/01 06:46:08;;;;;;;2.60;2.37;;;15.40;99.90;;;;;;5054331;28;20196;-70
2021/09/01 06:48:33;;;;;;;2.20;2.10;;;15.90;99.90;;;;;;5053585;28;20181;-68
2021/09/01 06:50:59;;;;;;;4.67;2.77;;;16.30;99.90;;;;;;5053244;28;20267;-69
2021/09/01 06:53:24;;;;;;;8.83;3.87;;;16.60;99.90;;;;;;5054224;28;20208;-68
2021/09/01 06:55:50;;;;;;;0.60;0.43;;;16.40;99.90;;;;;;5053347;28;20633;-68
2021/09/01 06:58:17;;;;;;;1.33;0.87;;;16.20;99.90;;;;;;5053192;28;20279;-69
2021/09/01 07:00:42;;;;;;;6.33;3.27;;;16.00;99.90;;;;;;5054058;28;20195;-68
2021/09/01 07:03:08;;;;;;;1.60;1.47;;;16.10;99.90;;;;;;5052892;28;20907;-69
2021/09/01 07:05:33;;;;;;;0.70;0.70;;;16.20;99.90;;;;;;5039287;28;20219;-68
2021/09/01 07:07:59;;;;;;;0.40;0.30;;;16.30;99.90;;;;;;5053954;28;20230;-68
2021/09/01 07:10:24;;;;;;;1.60;1.50;;;16.60;99.90;;;;;;5053718;28;20180;-68
2021/09/01 07:12:50;;;;;;;1.70;1.60;;;16.60;99.90;;;;;;5053789;28;20262;-69
2021/09/01 07:15:15;;;;;;;1.90;1.80;;;16.30;99.90;;;;;;5053772;28;20461;-69
2021/09/01 07:17:42;;;;;;;0.73;0.70;;;16.20;99.90;;;;;;5052777;28;20177;-68
2021/09/01 07:20:09;;;;;;;5.30;3.70;;;16.40;99.90;;;;;;5053639;28;20169;-68
2021/09/01 07:22:34;;;;;;;1.07;1.07;;;16.30;99.90;;;;;;5053600;28;20927;-71
2021/09/01 07:25:00;;;;;;;2.50;1.50;;;16.40;99.90;;;;;;5053638;28;20419;-72
2021/09/01 07:27:26;;;;;;;5.67;3.60;;;16.30;99.90;;;;;;5051467;28;20263;-71
2021/09/01 07:29:51;;;;;;;0.40;0.20;;;16.30;99.90;;;;;;5053020;28;20169;-70
2021/09/01 07:32:17;;;;;;;1.47;1.00;;;16.40;99.90;;;;;;5053748;28;20592;-70
2021/09/01 07:34:42;;;;;;;2.10;2.00;;;16.80;99.90;;;;;;5053329;28;20258;-69
2021/09/01 07:37:08;;;;;;;0.50;0.47;;;16.90;99.90;;;;;;5053594;28;20239;-69
2021/09/01 07:39:33;;;;;;;3.60;3.30;;;17.00;99.90;;;;;;5053409;28;20181;-70
2021/09/01 07:41:59;;;;;;;0.83;0.70;;;16.70;99.90;;;;;;5053485;28;20230;-70
2021/09/01 07:44:24;;;;;;;0.93;0.93;;;16.90;99.90;;;;;;5053355;28;20185;-68
2021/09/01 07:46:50;;;;;;;3.70;1.83;;;17.00;99.90;;;;;;5053394;28;20192;-68
2021/09/01 07:49:15;;;;;;;1.73;1.37;;;16.80;99.90;;;;;;5052352;28;20196;-68
2021/09/01 07:51:41;;;;;;;2.77;2.67;;;16.70;99.90;;;;;;5053446;28;20187;-68
2021/09/01 07:54:06;;;;;;;2.93;2.20;;;16.90;99.90;;;;;;5053387;28;20208;-69
2021/09/01 07:56:32;;;;;;;2.30;1.23;;;16.90;99.90;;;;;;5052294;28;20537;-70
2021/09/01 07:58:57;;;;;;;0.70;0.53;;;17.20;99.90;;;;;;5052521;28;20196;-69
2021/09/01 08:01:23;;;;;;;4.10;2.00;;;17.10;99.90;;;;;;5053434;28;20552;-72
2021/09/01 08:03:48;;;;;;;3.53;2.17;;;17.20;99.90;;;;;;5053115;28;20575;-71
2021/09/01 08:06:14;;;;;;;1.93;1.50;;;17.30;99.90;;;;;;5052102;28;20271;-72
2021/09/01 08:08:40;;;;;;;0.40;0.20;;;16.90;99.90;;;;;;5052896;28;20613;-70
2021/09/01 08:11:05;;;;;;;21.17;6.73;;;16.70;99.90;;;;;;5053124;28;20510;-68
2021/09/01 08:13:31;;;;;;;3.60;2.57;;;16.80;99.90;;;;;;5053122;28;20204;-68
2021/09/01 08:15:56;;;;;;;1.87;1.13;;;16.90;99.90;;;;;;5053294;28;20180;-68
2021/09/01 08:18:22;;;;;;;2.87;2.63;;;17.10;99.90;;;;;;5051994;28;20621;-68
2021/09/01 08:20:47;;;;;;;1.60;1.50;;;17.40;99.90;;;;;;5052911;28;20562;-67
2021/09/01 08:23:13;;;;;;;6.43;3.03;;;17.30;99.90;;;;;;5053293;28;20256;-70
2021/09/01 08:25:38;;;;;;;0.77;0.50;;;17.50;99.90;;;;;;5052985;28;20513;-68
2021/09/01 08:28:04;;;;;;;4.20;3.30;;;17.40;99.90;;;;;;5052816;28;20238;-68
2021/09/01 08:30:30;;;;;;;1.83;1.73;;;17.40;99.90;;;;;;5052789;28;20250;-68
2021/09/01 08:32:55;;;;;;;4.07;3.10;;;17.50;99.90;;;;;;5051649;28;20181;-68
2021/09/01 08:35:21;;;;;;;1.17;1.17;;;17.50;99.90;;;;;;5051485;28;20521;-68
2021/09/01 08:37:50;;;;;;;3.33;0.60;;;17.70;99.90;;;;;;5052646;28;20188;-68
2021/09/01 08:40:15;;;;;;;4.40;3.97;;;17.90;99.90;;;;;;5052340;28;20518;-69
2021/09/01 08:42:46;;;;;;;1.67;0.77;;;18.10;94.70;;;;;;5052652;28;20514;-69
2021/09/01 08:45:12;;;;;;;1.07;0.97;;;17.90;99.90;;;;;;5053281;28;20197;-67
2021/09/01 08:47:39;;;;;;;1.53;1.30;;;18.00;60.80;;;;;;5051704;28;20428;-70
2021/09/01 08:50:06;;;;;;;2.00;1.67;;;18.10;66.00;;;;;;5052551;28;20181;-70
2021/09/01 08:52:31;;;;;;;0.40;0.20;;;18.20;34.50;;;;;;5052836;28;20424;-71
2021/09/01 08:54:57;;;;;;;0.40;0.30;;;18.50;79.20;;;;;;5051935;28;20523;-71
2021/09/01 08:57:23;;;;;;;1.60;1.40;;;19.00;1.00;;;;;;5054532;28;20199;-70
2021/09/01 08:59:48;;;;;;;3.60;2.07;;;19.00;1.00;;;;;;5055984;28;20548;-71
2021/09/01 09:02:14;;;;;;;3.43;2.73;;;18.70;1.00;;;;;;5056324;28;20169;-70
2021/09/01 09:04:39;;;;;;;0.40;0.20;;;18.60;1.00;;;;;;5056261;28;20188;-67
2021/09/01 09:07:07;;;;;;;0.50;0.30;;;18.70;1.00;;;;;;5057367;28;20605;-68
2021/09/01 09:09:35;;;;;;;2.93;1.67;;;19.00;1.00;;;;;;5056391;28;20177;-69
2021/09/01 09:12:03;;;;;;;1.33;1.23;;;19.20;1.00;;;;;;5056250;28;20973;-68
2021/09/01 09:14:32;;;;;;;2.53;2.43;;;19.40;1.00;;;;;;5055995;28;20477;-69
2021/09/01 09:17:20;;;;;;;0.90;0.90;;;19.30;1.00;;;;;;5056388;28;20747;-75
2021/09/01 09:20:02;;;;;;;0.40;0.20;;;19.30;1.00;;;;;;5056062;28;20876;-71
2021/09/01 09:22:32;;;;;;;0.40;0.20;;;19.60;1.00;;;;;;5056116;28;20447;-73
2021/09/01 09:25:06;;;;;;;0.40;0.20;;;19.50;1.00;;;;;;5055004;28;20993;-72
2021/09/01 09:28:01;;;;;;;1.53;1.03;;;19.40;1.00;;;;;;5055723;28;20880;-71
2021/09/01 09:30:30;;;;;;;0.40;0.20;;;19.40;1.00;;;;;;5054065;28;20431;-68
2021/09/01 09:33:00;;;;;;;11.33;2.43;;;19.20;1.00;;;;;;5055780;28;20424;-68
2021/09/01 09:35:56;;;;;;;0.40;0.20;;;19.60;1.00;;;;;;5055755;28;20459;-70
2021/09/01 09:38:41;;;;;;;0.50;0.50;;;19.90;1.00;;;;;;5055717;28;20431;-69
2021/09/01 09:41:23;;;;;;;1.03;0.67;;;20.00;1.00;;;;;;5054937;28;20872;-71
2021/09/01 09:44:04;;;;;;;2.93;2.20;;;20.10;1.00;;;;;;5054704;28;20423;-71
2021/09/01 09:46:30;;;;;;;1.27;1.23;;;19.90;1.00;;;;;;5055823;28;21033;-71
2021/09/01 09:49:06;;;;;;;0.87;0.70;;;19.90;1.00;;;;;;5055473;28;21028;-72
2021/09/01 09:51:41;;;;;;;2.73;1.73;;;19.70;1.00;;;;;;5054942;28;20469;-74
2021/09/01 09:54:18;;;;;;;0.90;0.57;;;19.60;1.00;;;;;;5055795;28;20938;-70
2021/09/01 09:56:45;;;;;;;3.70;2.60;;;19.90;1.00;;;;;;5055888;28;20419;-73
2021/09/01 09:59:20;;;;;;;1.27;1.17;;;19.80;99.90;;;;;;5055062;28;20438;-71
2021/09/01 10:01:47;;;;;;;1.37;0.90;;;19.70;1.00;;;;;;5054454;28;20526;-72
2021/09/01 10:04:12;;;;;;;2.77;2.00;;;20.00;1.00;;;;;;5047473;28;20440;-74
2021/09/01 10:06:39;;;;;;;0.70;0.60;;;19.90;99.90;;;;;;5035625;28;20428;-71
2021/09/01 10:09:05;;;;;;;0.90;0.63;;;20.10;99.90;;;;;;5035125;28;20209;-73
2021/09/01 10:11:33;;;;;;;1.40;0.77;;;20.10;99.90;;;;;;5050272;28;20529;-72
2021/09/01 10:13:59;;;;;;;1.47;1.37;;;20.10;99.90;;;;;;5053759;28;20212;-73
2021/09/01 10:16:34;;;;;;;2.47;1.80;;;20.40;99.90;;;;;;5055121;28;20522;-73
2021/09/01 10:19:15;;;;;;;0.53;0.50;;;20.30;99.90;;;;;;5054861;28;20179;-72
2021/09/01 10:21:45;;;;;;;5.97;2.47;;;20.30;1.00;;;;;;5054919;28;20864;-69
2021/09/01 10:24:22;;;;;;;0.40;0.20;;;20.30;99.90;;;;;;5054945;28;20435;-72
2021/09/01 10:27:05;;;;;;;0.60;0.43;;;20.50;99.90;;;;;;5054690;28;20906;-68
2021/09/01 10:29:47;;;;;;;2.57;1.70;;;20.80;99.90;;;;;;5054672;28;20423;-71
2021/09/01 10:32:27;;;;;;;1.43;0.87;;;20.70;99.90;;;;;;5054864;28;20438;-71
2021/09/01 10:35:12;;;;;;;0.50;0.40;;;20.70;99.90;;;;;;5053561;28;20613;-67
2021/09/01 10:37:38;;;;;;;7.10;2.93;;;20.60;99.90;;;;;;5054330;28;20434;-72
2021/09/01 10:40:05;;;;;;;0.40;0.30;;;20.30;99.90;;;;;;5053512;28;20459;-68
2021/09/01 10:42:40;;;;;;;1.60;1.50;;;20.30;1.00;;;;;;5054435;28;21058;-71
2021/09/01 10:45:08;;;;;;;2.77;2.03;;;20.30;1.00;;;;;;5054174;28;20514;-69
2021/09/01 10:47:52;;;;;;;1.37;1.27;;;20.20;1.00;;;;;;5054828;28;20436;-69
2021/09/01 10:50:28;;;;;;;2.00;1.13;;;20.40;1.00;;;;;;5054029;28;20423;-71
2021/09/01 10:52:59;;;;;;;4.47;0.77;;;20.60;99.90;;;;;;5054299;28;20455;-66
2021/09/01 10:55:26;;;;;;;1.43;1.20;;;20.60;1.00;;;;;;5054194;28;20434;-72
2021/09/01 10:58:24;;;;;;;1.60;1.17;;;20.80;99.90;;;;;;5052963;28;20546;-71
2021/09/01 11:00:55;;;;;;;0.50;0.33;;;20.80;99.90;;;;;;5053066;28;20514;-72
2021/09/01 11:03:33;;;;;;;0.40;0.13;;;21.20;99.90;;;;;;5052961;28;20446;-73
2021/09/01 11:06:16;;;;;;;3.43;1.60;;;21.30;99.90;;;;;;5054087;28;20439;-71
2021/09/01 11:08:58;;;;;;;0.40;0.20;;;21.30;1.00;;;;;;5053633;28;20427;-72
2021/09/01 11:11:45;;;;;;;1.13;0.93;;;21.30;99.90;;;;;;5054083;28;20462;-67
2021/09/01 11:14:30;;;;;;;10.47;3.20;;;21.80;1.00;;;;;;5053768;28;20478;-72
2021/09/01 11:16:57;;;;;;;0.50;0.27;;;21.30;99.90;;;;;;5053588;28;20424;-73
2021/09/01 11:19:23;;;;;;;1.90;1.60;;;21.00;99.90;;;;;;5052360;28;20755;-73
2021/09/01 11:21:48;;;;;;;0.50;0.30;;;21.10;90.30;;;;;;5053539;28;20442;-74
2021/09/01 11:24:17;;;;;;;1.00;0.70;;;21.20;29.80;;;;;;5052391;28;20424;-74
2021/09/01 11:26:46;;;;;;;4.73;3.00;;;21.40;99.90;;;;;;5056178;28;20211;-73
2021/09/01 11:29:12;;;;;;;1.43;1.33;;;21.20;1.00;;;;;;5057210;28;20462;-72
2021/09/01 11:31:43;;;;;;;1.53;1.43;;;20.80;99.90;;;;;;5054463;28;20916;-73
2021/09/01 11:34:11;;;;;;;2.30;0.90;;;21.00;99.90;;;;;;5053535;28;20932;-74
2021/09/01 11:36:37;;;;;;;0.40;0.30;;;21.50;1.00;;;;;;5053610;28;20907;-71
2021/09/01 11:39:03;;;;;;;0.50;0.30;;;21.60;1.00;;;;;;5052295;28;20462;-72
2021/09/01 11:41:28;;;;;;;0.90;0.63;;;21.70;1.00;;;;;;5053383;28;20184;-71
2021/09/01 11:44:00;;;;;;;0.80;0.60;;;21.40;1.00;;;;;;5053280;28;20759;-71
2021/09/01 11:46:27;;;;;;;0.50;0.40;;;21.50;1.00;;;;;;5053263;28;20198;-71
2021/09/01 11:48:56;;;;;;;3.87;1.87;;;21.90;1.00;;;;;;5053018;28;20463;-71
2021/09/01 11:51:22;;;;;;;3.30;0.77;;;22.30;18.90;;;;;;5053377;28;20445;-70
2021/09/01 11:53:48;;;;;;;2.93;1.80;;;22.10;99.90;;;;;;5053352;28;20467;-71
2021/09/01 11:56:14;;;;;;;2.70;2.23;;;22.00;99.90;;;;;;5053292;28;20435;-70
2021/09/01 11:58:40;;;;;;;1.63;1.53;;;21.60;1.00;;;;;;5053104;28;20791;-75
2021/09/01 12:01:10;;;;;;;4.77;2.20;;;21.90;1.00;;;;;;5052239;28;20436;-71
2021/09/01 12:03:36;;;;;;;1.73;1.63;;;22.20;1.00;;;;;;5053001;28;20188;-72
2021/09/01 12:06:06;;;;;;;1.40;1.07;;;22.30;99.90;;;;;;5053304;28;20450;-70
2021/09/01 12:08:41;;;;;;;2.30;1.33;;;22.30;99.90;;;;;;5052931;28;20458;-69
2021/09/01 12:11:07;;;;;;;1.37;0.90;;;22.50;99.90;;;;;;5053400;28;20496;-69
2021/09/01 12:13:44;;;;;;;1.27;0.40;;;22.40;1.00;;;;;;5053201;28;20489;-69
2021/09/01 12:16:11;;;;;;;1.10;0.93;;;22.40;1.00;;;;;;5052171;28;20434;-69
2021/09/01 12:18:57;;;;;;;0.67;0.57;;;22.50;1.00;;;;;;5052981;28;20876;-70
2021/09/01 12:21:40;;;;;;;2.30;1.00;;;22.80;99.90;;;;;;5053147;28;20900;-70
2021/09/01 12:24:22;;;;;;;1.30;1.20;;;22.80;99.90;;;;;;5053239;28;20509;-69
2021/09/01 12:26:52;;;;;;;2.10;1.17;;;22.80;1.00;;;;;;5053144;28;20427;-69
2021/09/01 12:29:38;;;;;;;1.20;0.80;;;22.70;1.00;;;;;;5052177;28;20466;-68
2021/09/01 12:32:14;;;;;;;1.20;1.13;;;22.60;99.90;;;;;;5054949;28;20518;-69
2021/09/01 12:34:43;;;;;;;1.07;0.67;;;22.20;1.00;;;;;;5056707;28;20557;-69
2021/09/01 12:37:13;;;;;;;1.03;0.80;;;22.30;99.90;;;;;;5056017;28;20431;-68
2021/09/01 12:39:49;;;;;;;1.60;1.20;;;22.70;1.00;;;;;;5056966;28;20821;-68
2021/09/01 12:42:38;;;;;;;3.23;1.90;;;22.70;1.00;;;;;;5056999;28;20513;-70
2021/09/01 12:45:20;;;;;;;1.37;1.27;;;22.80;99.90;;;;;;5057559;28;20434;-71
2021/09/01 12:47:59;;;;;;;0.70;0.60;;;23.10;1.00;;;;;;5057182;28;20598;-68
2021/09/01 12:50:42;;;;;;;4.93;2.57;;;23.30;1.00;;;;;;5055854;28;20745;-71
2021/09/01 12:53:11;;;;;;;0.60;0.60;;;23.20;99.90;;;;;;5056679;28;20422;-69